createdAt,value
2022-10-01T00:00:28.263Z,79.38
2022-10-01T00:01:28.369Z,79.99
2022-10-01T00:02:28.318Z,79.07
2022-10-01T00:03:28.246Z,79.38
2022-10-01T00:04:28.243Z,79.38
2022-10-01T00:05:28.215Z,79.38
2022-10-01T00:06:28.829Z,79.27
2022-10-01T00:07:28.186Z,79.58
2022-10-01T00:08:28.190Z,79.17
2022-10-01T00:09:28.176Z,79.48
2022-10-01T00:10:28.163Z,79.48
2022-10-01T00:11:28.149Z,79.58
2022-10-01T00:12:28.829Z,79.68
2022-10-01T00:13:28.142Z,79.17
2022-10-01T00:14:28.116Z,79.27
2022-10-01T00:15:28.104Z,78.86
2022-10-01T00:16:28.165Z,78.97
2022-10-01T00:17:28.084Z,78.97
2022-10-01T00:18:28.092Z,79.75
2022-10-01T00:19:28.088Z,79.13
2022-10-01T00:20:28.076Z,79.48
2022-10-01T00:21:28.049Z,79.75
2022-10-01T00:22:28.033Z,79.34
2022-10-01T00:23:28.040Z,79.54
2022-10-01T00:24:28.016Z,79.64
2022-10-01T00:25:27.997Z,79.85
2022-10-01T00:26:27.994Z,79.75
2022-10-01T00:27:27.979Z,79.44
2022-10-01T00:28:28.089Z,79.96
2022-10-01T00:29:27.960Z,79.96
2022-10-01T00:30:27.944Z,80.57
2022-10-01T00:31:28.008Z,80.57
2022-10-01T00:32:27.931Z,80.36
2022-10-01T00:33:27.934Z,80.16
2022-10-01T00:34:27.909Z,80.05
2022-10-01T00:35:27.896Z,80.05
2022-10-01T00:36:27.910Z,80.05
2022-10-01T00:37:27.875Z,79.96
2022-10-01T00:38:27.881Z,80.05
2022-10-01T00:39:27.851Z,81.08
2022-10-01T00:40:27.845Z,80.88
2022-10-01T00:41:27.837Z,80.67
2022-10-01T00:42:27.840Z,80.46
2022-10-01T00:43:27.812Z,80.67
2022-10-01T00:44:27.820Z,80.77
2022-10-01T00:45:27.880Z,80.88
2022-10-01T00:46:27.780Z,80.16
2022-10-01T00:47:28.342Z,80.26
2022-10-01T00:48:28.350Z,80.57
2022-10-01T00:49:27.764Z,79.96
2022-10-01T00:50:27.738Z,80.16
2022-10-01T00:51:27.725Z,80.88
2022-10-01T00:52:28.362Z,80.57
2022-10-01T00:53:27.707Z,80.46
2022-10-01T00:54:27.711Z,80.05
2022-10-01T00:55:28.346Z,80.12
2022-10-01T00:56:27.677Z,80.26
2022-10-01T00:57:27.669Z,80.12
2022-10-01T00:58:27.657Z,80.33
2022-10-01T00:59:27.660Z,80.22
2022-10-01T01:00:27.641Z,80.12
2022-10-01T01:01:27.830Z,80.02
2022-10-01T01:02:27.679Z,79.91
2022-10-01T01:03:27.602Z,79.41
2022-10-01T01:04:27.657Z,79.41
2022-10-01T01:05:27.598Z,79.20
2022-10-01T01:06:27.569Z,79.30
2022-10-01T01:07:27.559Z,79.00
2022-10-01T01:08:27.579Z,79.20
2022-10-01T01:09:27.560Z,78.69
2022-10-01T01:10:27.527Z,78.79
2022-10-01T01:11:27.517Z,79.00
2022-10-01T01:12:27.510Z,79.20
2022-10-01T01:13:27.499Z,79.00
2022-10-01T01:14:27.501Z,79.50
2022-10-01T01:15:27.476Z,79.82
2022-10-01T01:16:28.352Z,79.82
2022-10-01T01:17:27.455Z,79.82
2022-10-01T01:18:28.349Z,79.71
2022-10-01T01:19:27.454Z,79.71
2022-10-01T01:20:27.427Z,78.89
2022-10-01T01:21:27.413Z,79.00
2022-10-01T01:22:27.402Z,79.30
2022-10-01T01:23:27.394Z,79.61
2022-10-01T01:24:27.427Z,79.91
2022-10-01T01:25:27.372Z,79.82
2022-10-01T01:26:27.367Z,79.91
2022-10-01T01:27:27.353Z,80.02
2022-10-01T01:28:27.440Z,79.71
2022-10-01T01:29:27.348Z,79.71
2022-10-01T01:30:27.319Z,79.71
2022-10-01T01:31:27.369Z,79.71
2022-10-01T01:32:27.850Z,80.22
2022-10-01T01:33:27.316Z,80.12
2022-10-01T01:34:27.279Z,80.33
2022-10-01T01:35:27.283Z,79.82
2022-10-01T01:36:27.257Z,79.91
2022-10-01T01:37:27.255Z,80.12
2022-10-01T01:38:27.238Z,80.22
2022-10-01T01:39:27.229Z,80.43
2022-10-01T01:40:27.310Z,80.12
2022-10-01T01:41:27.204Z,80.02
2022-10-01T01:42:27.220Z,79.91
2022-10-01T01:43:27.853Z,80.12
2022-10-01T01:44:27.176Z,80.43
2022-10-01T01:45:27.236Z,80.53
2022-10-01T01:46:27.152Z,80.63
2022-10-01T01:47:27.143Z,80.53
2022-10-01T01:48:27.134Z,80.74
2022-10-01T01:49:27.124Z,80.53
2022-10-01T01:50:27.124Z,80.74
2022-10-01T01:51:27.099Z,80.53
2022-10-01T01:52:27.089Z,80.53
2022-10-01T01:53:27.080Z,80.33
2022-10-01T01:54:27.067Z,80.43
2022-10-01T01:55:27.074Z,80.33
2022-10-01T01:56:27.876Z,80.43
2022-10-01T01:57:27.037Z,80.43
2022-10-01T01:58:27.025Z,80.43
2022-10-01T01:59:27.029Z,80.63
2022-10-01T02:00:27.008Z,80.74
2022-10-01T02:01:27.036Z,81.15
2022-10-01T02:02:27.016Z,81.35
2022-10-01T02:03:26.976Z,81.35
2022-10-01T02:04:27.002Z,81.65
2022-10-01T02:05:26.962Z,83.09
2022-10-01T02:06:26.944Z,83.19
2022-10-01T02:07:26.933Z,83.39
2022-10-01T02:08:26.923Z,83.29
2022-10-01T02:09:26.939Z,84.97
2022-10-01T02:10:26.902Z,84.87
2022-10-01T02:11:27.864Z,85.17
2022-10-01T02:12:26.905Z,85.07
2022-10-01T02:13:26.872Z,84.87
2022-10-01T02:14:26.897Z,85.17
2022-10-01T02:15:26.850Z,85.79
2022-10-01T02:16:26.972Z,85.79
2022-10-01T02:17:26.831Z,85.89
2022-10-01T02:18:26.822Z,85.89
2022-10-01T02:19:26.824Z,85.99
2022-10-01T02:20:27.372Z,87.12
2022-10-01T02:21:26.788Z,86.30
2022-10-01T02:22:27.365Z,86.91
2022-10-01T02:23:26.766Z,87.43
2022-10-01T02:24:26.767Z,88.04
2022-10-01T02:25:26.748Z,88.29
2022-10-01T02:26:26.737Z,88.39
2022-10-01T02:27:26.734Z,88.29
2022-10-01T02:28:26.813Z,88.90
2022-10-01T02:29:26.719Z,89.51
2022-10-01T02:30:26.693Z,89.62
2022-10-01T02:31:26.745Z,89.72
2022-10-01T02:32:26.797Z,89.92
2022-10-01T02:33:26.667Z,90.13
2022-10-01T02:34:26.677Z,90.03
2022-10-01T02:35:26.645Z,89.92
2022-10-01T02:36:26.631Z,90.13
2022-10-01T02:37:26.625Z,90.64
2022-10-01T02:38:26.609Z,90.64
2022-10-01T02:39:26.618Z,90.75
2022-10-01T02:40:26.592Z,90.84
2022-10-01T02:41:26.584Z,90.79
2022-10-01T02:42:26.568Z,90.89
2022-10-01T02:43:26.562Z,90.99
2022-10-01T02:44:26.584Z,91.09
2022-10-01T02:45:26.751Z,91.20
2022-10-01T02:46:26.563Z,91.61
2022-10-01T02:47:26.520Z,91.71
2022-10-01T02:48:26.504Z,91.71
2022-10-01T02:49:30.535Z,92.43
2022-10-01T02:50:26.500Z,93.04
2022-10-01T02:51:26.475Z,93.04
2022-10-01T02:52:26.469Z,93.04
2022-10-01T02:53:26.454Z,93.15
2022-10-01T02:54:26.445Z,92.94
2022-10-01T02:55:26.453Z,92.94
2022-10-01T02:56:26.423Z,93.04
2022-10-01T02:57:26.414Z,92.94
2022-10-01T02:58:26.406Z,92.94
2022-10-01T02:59:26.396Z,93.04
2022-10-01T03:00:26.419Z,93.25
2022-10-01T03:01:26.445Z,93.15
2022-10-01T03:02:26.445Z,93.25
2022-10-01T03:03:26.355Z,93.49
2022-10-01T03:04:26.340Z,93.80
2022-10-01T03:05:26.353Z,94.01
2022-10-01T03:06:26.320Z,94.01
2022-10-01T03:07:26.317Z,94.01
2022-10-01T03:08:26.301Z,94.01
2022-10-01T03:09:26.289Z,94.11
2022-10-01T03:10:26.289Z,94.32
2022-10-01T03:11:26.277Z,94.62
2022-10-01T03:12:26.256Z,94.73
2022-10-01T03:13:26.265Z,94.83
2022-10-01T03:14:26.250Z,94.93
2022-10-01T03:15:26.228Z,94.93
2022-10-01T03:16:26.273Z,95.03
2022-10-01T03:17:26.212Z,94.93
2022-10-01T03:18:26.195Z,95.03
2022-10-01T03:19:26.204Z,95.14
2022-10-01T03:20:26.176Z,95.24
2022-10-01T03:21:26.176Z,95.34
2022-10-01T03:22:26.155Z,95.44
2022-10-01T03:23:26.146Z,95.44
2022-10-01T03:24:26.131Z,95.34
2022-10-01T03:25:26.142Z,95.44
2022-10-01T03:26:26.113Z,95.75
2022-10-01T03:27:26.122Z,95.79
2022-10-01T03:28:26.158Z,95.86
2022-10-01T03:29:26.091Z,96.10
2022-10-01T03:30:26.096Z,96.10
2022-10-01T03:31:26.080Z,96.31
2022-10-01T03:32:26.072Z,96.31
2022-10-01T03:33:26.053Z,96.31
2022-10-01T03:34:26.035Z,96.31
2022-10-01T03:35:26.040Z,96.20
2022-10-01T03:36:26.042Z,96.31
2022-10-01T03:37:26.005Z,96.41
2022-10-01T03:38:25.992Z,96.51
2022-10-01T03:39:25.988Z,96.51
2022-10-01T03:40:25.988Z,96.62
2022-10-01T03:41:25.962Z,96.72
2022-10-01T03:42:25.951Z,96.82
2022-10-01T03:43:25.946Z,96.92
2022-10-01T03:44:25.932Z,96.92
2022-10-01T03:45:25.973Z,97.03
2022-10-01T03:46:25.908Z,97.03
2022-10-01T03:47:25.893Z,96.92
2022-10-01T03:48:25.903Z,96.92
2022-10-01T03:49:25.876Z,96.92
2022-10-01T03:50:25.882Z,96.82
2022-10-01T03:51:25.861Z,96.82
2022-10-01T03:52:25.848Z,96.82
2022-10-01T03:53:25.836Z,96.72
2022-10-01T03:54:25.820Z,96.62
2022-10-01T03:55:25.824Z,96.82
2022-10-01T03:56:25.803Z,96.92
2022-10-01T03:57:25.793Z,96.92
2022-10-01T03:58:25.777Z,96.92
2022-10-01T03:59:25.770Z,96.92
2022-10-01T04:00:25.770Z,96.92
2022-10-01T04:01:25.792Z,96.92
2022-10-01T04:02:25.849Z,97.03
2022-10-01T04:03:25.729Z,97.03
2022-10-01T04:04:25.742Z,97.03
2022-10-01T04:05:25.730Z,97.13
2022-10-01T04:06:25.701Z,97.03
2022-10-01T04:07:25.688Z,97.03
2022-10-01T04:08:25.678Z,97.13
2022-10-01T04:09:25.667Z,97.23
2022-10-01T04:10:25.672Z,97.23
2022-10-01T04:11:25.665Z,97.23
2022-10-01T04:12:25.642Z,97.44
2022-10-01T04:13:25.653Z,97.44
2022-10-01T04:14:25.661Z,97.44
2022-10-01T04:15:25.626Z,97.54
2022-10-01T04:16:25.720Z,97.44
2022-10-01T04:17:25.614Z,97.54
2022-10-01T04:18:25.580Z,97.44
2022-10-01T04:19:25.579Z,97.44
2022-10-01T04:20:25.593Z,97.33
2022-10-01T04:21:25.551Z,97.33
2022-10-01T04:22:25.534Z,97.33
2022-10-01T04:23:25.524Z,97.33
2022-10-01T04:24:25.522Z,97.44
2022-10-01T04:25:25.524Z,97.44
2022-10-01T04:26:25.500Z,97.54
2022-10-01T04:27:25.490Z,97.64
2022-10-01T04:28:25.562Z,97.64
2022-10-01T04:29:25.473Z,97.70
2022-10-01T04:30:25.472Z,97.74
2022-10-01T04:31:25.666Z,97.85
2022-10-01T04:32:25.436Z,97.80
2022-10-01T04:33:25.434Z,97.74
2022-10-01T04:34:25.416Z,97.64
2022-10-01T04:35:25.439Z,97.60
2022-10-01T04:36:25.412Z,97.60
2022-10-01T04:37:25.396Z,97.49
2022-10-01T04:38:25.376Z,97.60
2022-10-01T04:39:25.362Z,97.70
2022-10-01T04:40:25.351Z,97.80
2022-10-01T04:41:25.363Z,97.80
2022-10-01T04:42:25.330Z,97.80
2022-10-01T04:43:25.321Z,97.91
2022-10-01T04:44:25.311Z,98.00
2022-10-01T04:45:25.311Z,97.91
2022-10-01T04:46:25.376Z,97.91
2022-10-01T04:47:25.292Z,98.00
2022-10-01T04:48:25.278Z,98.00
2022-10-01T04:49:25.261Z,97.91
2022-10-01T04:50:25.260Z,97.70
2022-10-01T04:51:25.282Z,97.70
2022-10-01T04:52:25.247Z,97.80
2022-10-01T04:53:25.225Z,97.91
2022-10-01T04:54:25.208Z,97.91
2022-10-01T04:55:25.209Z,98.00
2022-10-01T04:56:25.207Z,98.00
2022-10-01T04:57:25.202Z,98.00
2022-10-01T04:58:25.170Z,98.00
2022-10-01T04:59:25.158Z,97.91
2022-10-01T05:00:25.167Z,98.00
2022-10-01T05:01:25.266Z,98.11
2022-10-01T05:02:25.177Z,98.21
2022-10-01T05:03:25.126Z,98.32
2022-10-01T05:04:25.102Z,98.52
2022-10-01T05:05:25.103Z,98.52
2022-10-01T05:06:25.166Z,98.62
2022-10-01T05:07:25.075Z,98.62
2022-10-01T05:08:25.083Z,98.62
2022-10-01T05:09:25.107Z,98.62
2022-10-01T05:10:25.054Z,98.62
2022-10-01T05:11:25.047Z,98.62
2022-10-01T05:12:25.021Z,98.62
2022-10-01T05:13:25.007Z,98.62
2022-10-01T05:14:25.001Z,98.52
2022-10-01T05:15:25.012Z,98.52
2022-10-01T05:16:25.026Z,98.52
2022-10-01T05:17:24.969Z,98.52
2022-10-01T05:18:24.961Z,98.52
2022-10-01T05:19:27.990Z,98.52
2022-10-01T05:20:24.934Z,98.62
2022-10-01T05:21:24.939Z,98.62
2022-10-01T05:22:24.915Z,98.72
2022-10-01T05:23:24.908Z,98.83
2022-10-01T05:24:24.923Z,98.93
2022-10-01T05:25:24.882Z,98.93
2022-10-01T05:26:24.913Z,99.03
2022-10-01T05:27:24.867Z,99.03
2022-10-01T05:28:24.942Z,99.03
2022-10-01T05:29:24.843Z,99.03
2022-10-01T05:30:24.831Z,98.93
2022-10-01T05:31:24.915Z,98.93
2022-10-01T05:32:24.815Z,98.93
2022-10-01T05:33:24.805Z,98.93
2022-10-01T05:34:24.787Z,99.03
2022-10-01T05:35:24.778Z,99.03
2022-10-01T05:36:24.788Z,99.03
2022-10-01T05:37:24.760Z,99.03
2022-10-01T05:38:24.766Z,98.93
2022-10-01T05:39:24.745Z,98.93
2022-10-01T05:40:24.750Z,98.93
2022-10-01T05:41:24.722Z,98.93
2022-10-01T05:42:24.727Z,98.83
2022-10-01T05:43:24.705Z,98.93
2022-10-01T05:44:24.703Z,98.93
2022-10-01T05:45:24.766Z,99.03
2022-10-01T05:46:24.662Z,99.03
2022-10-01T05:47:24.671Z,99.03
2022-10-01T05:48:24.645Z,99.13
2022-10-01T05:49:24.642Z,99.13
2022-10-01T05:50:24.666Z,99.13
2022-10-01T05:51:24.619Z,99.13
2022-10-01T05:52:24.619Z,99.13
2022-10-01T05:53:24.596Z,99.13
2022-10-01T05:54:24.585Z,99.24
2022-10-01T05:55:24.581Z,99.24
2022-10-01T05:56:24.582Z,99.24
2022-10-01T05:57:24.571Z,99.24
2022-10-01T05:58:24.542Z,99.24
2022-10-01T05:59:28.416Z,99.24
2022-10-01T06:00:25.524Z,99.24
2022-10-01T06:01:24.517Z,99.24
2022-10-01T06:02:24.667Z,99.24
2022-10-01T06:03:24.527Z,99.34
2022-10-01T06:04:24.480Z,99.44
2022-10-01T06:05:24.470Z,99.44
2022-10-01T06:06:24.458Z,99.44
2022-10-01T06:07:24.461Z,99.44
2022-10-01T06:08:24.437Z,99.54
2022-10-01T06:09:24.436Z,99.54
2022-10-01T06:10:24.421Z,99.54
2022-10-01T06:11:24.405Z,99.54
2022-10-01T06:12:24.496Z,99.54
2022-10-01T06:13:24.385Z,99.54
2022-10-01T06:14:24.376Z,99.54
2022-10-01T06:15:24.373Z,99.65
2022-10-01T06:16:24.402Z,99.54
2022-10-01T06:17:24.358Z,99.65
2022-10-01T06:18:24.350Z,99.75
2022-10-01T06:19:24.323Z,99.85
2022-10-01T06:20:24.313Z,99.85
2022-10-01T06:21:24.308Z,99.80
2022-10-01T06:22:26.242Z,99.50
2022-10-01T06:23:24.290Z,99.50
2022-10-01T06:24:24.275Z,99.60
2022-10-01T06:25:24.267Z,99.60
2022-10-01T06:26:24.257Z,99.50
2022-10-01T06:27:24.253Z,99.40
2022-10-01T06:28:24.302Z,99.29
2022-10-01T06:29:24.223Z,99.29
2022-10-01T06:30:24.212Z,99.19
2022-10-01T06:31:24.259Z,99.09
2022-10-01T06:32:24.207Z,99.09
2022-10-01T06:33:24.180Z,98.99
2022-10-01T06:34:24.171Z,98.99
2022-10-01T06:35:24.162Z,98.99
2022-10-01T06:36:24.899Z,98.78
2022-10-01T06:37:24.147Z,98.47
2022-10-01T06:38:24.122Z,98.58
2022-10-01T06:39:24.113Z,98.22
2022-10-01T06:40:24.101Z,98.02
2022-10-01T06:41:24.100Z,98.12
2022-10-01T06:42:24.094Z,98.12
2022-10-01T06:43:24.096Z,98.22
2022-10-01T06:44:24.085Z,98.33
2022-10-01T06:45:24.053Z,98.43
2022-10-01T06:46:24.151Z,98.43
2022-10-01T06:47:24.044Z,98.33
2022-10-01T06:48:24.022Z,98.22
2022-10-01T06:49:24.010Z,98.22
2022-10-01T06:50:23.998Z,98.12
2022-10-01T06:51:23.995Z,98.02
2022-10-01T06:52:23.998Z,97.81
2022-10-01T06:53:23.979Z,98.02
2022-10-01T06:54:23.958Z,98.02
2022-10-01T06:55:23.946Z,97.91
2022-10-01T06:56:23.943Z,97.71
2022-10-01T06:57:23.938Z,97.61
2022-10-01T06:58:24.059Z,97.71
2022-10-01T06:59:23.920Z,97.61
2022-10-01T07:00:23.932Z,97.50
2022-10-01T07:01:23.920Z,97.15
2022-10-01T07:02:23.976Z,97.15
2022-10-01T07:03:23.865Z,97.25
2022-10-01T07:04:23.873Z,97.36
2022-10-01T07:05:23.853Z,97.46
2022-10-01T07:06:23.834Z,97.36
2022-10-01T07:07:27.056Z,97.77
2022-10-01T07:08:24.820Z,97.97
2022-10-01T07:09:23.825Z,97.66
2022-10-01T07:10:23.803Z,97.25
2022-10-01T07:11:23.789Z,97.15
2022-10-01T07:12:23.797Z,97.05
2022-10-01T07:13:23.847Z,97.25
2022-10-01T07:14:23.747Z,97.25
2022-10-01T07:15:23.841Z,97.25
2022-10-01T07:16:23.794Z,97.36
2022-10-01T07:17:23.733Z,97.46
2022-10-01T07:18:23.710Z,97.46
2022-10-01T07:19:23.696Z,97.56
2022-10-01T07:20:23.694Z,97.46
2022-10-01T07:21:23.675Z,97.56
2022-10-01T07:22:23.665Z,97.36
2022-10-01T07:23:23.745Z,97.36
2022-10-01T07:24:23.644Z,96.95
2022-10-01T07:25:23.632Z,96.74
2022-10-01T07:26:23.637Z,97.36
2022-10-01T07:27:23.627Z,97.46
2022-10-01T07:28:23.639Z,97.46
2022-10-01T07:29:23.590Z,97.56
2022-10-01T07:30:23.645Z,97.46
2022-10-01T07:31:23.650Z,97.36
2022-10-01T07:32:23.583Z,97.25
2022-10-01T07:33:23.573Z,97.15
2022-10-01T07:34:23.542Z,97.00
2022-10-01T07:35:23.594Z,97.11
2022-10-01T07:36:23.525Z,97.11
2022-10-01T07:37:23.519Z,97.11
2022-10-01T07:38:23.518Z,97.00
2022-10-01T07:39:23.497Z,97.11
2022-10-01T07:40:23.559Z,97.11
2022-10-01T07:41:23.469Z,96.39
2022-10-01T07:42:23.459Z,96.39
2022-10-01T07:43:23.464Z,96.59
2022-10-01T07:44:23.436Z,96.70
2022-10-01T07:45:23.426Z,96.80
2022-10-01T07:46:23.425Z,97.00
2022-10-01T07:47:23.408Z,96.59
2022-10-01T07:48:23.432Z,96.59
2022-10-01T07:49:23.387Z,96.70
2022-10-01T07:50:23.448Z,96.49
2022-10-01T07:51:23.365Z,96.39
2022-10-01T07:52:23.357Z,96.80
2022-10-01T07:53:23.413Z,96.91
2022-10-01T07:54:23.337Z,96.39
2022-10-01T07:55:23.319Z,96.39
2022-10-01T07:56:23.321Z,96.70
2022-10-01T07:57:23.308Z,96.59
2022-10-01T07:58:23.305Z,96.59
2022-10-01T07:59:23.283Z,96.49
2022-10-01T08:00:23.362Z,96.59
2022-10-01T08:01:23.292Z,96.70
2022-10-01T08:02:23.351Z,96.70
2022-10-01T08:03:23.264Z,96.39
2022-10-01T08:04:23.252Z,96.19
2022-10-01T08:05:23.214Z,96.08
2022-10-01T08:06:25.550Z,96.04
2022-10-01T08:07:23.200Z,96.25
2022-10-01T08:08:23.203Z,96.04
2022-10-01T08:09:23.176Z,96.04
2022-10-01T08:10:23.242Z,96.04
2022-10-01T08:11:23.164Z,95.94
2022-10-01T08:12:23.154Z,95.84
2022-10-01T08:13:23.159Z,95.94
2022-10-01T08:14:23.127Z,96.25
2022-10-01T08:15:23.117Z,96.45
2022-10-01T08:16:23.143Z,96.45
2022-10-01T08:17:27.271Z,96.55
2022-10-01T08:18:24.116Z,96.55
2022-10-01T08:19:23.070Z,96.45
2022-10-01T08:20:23.201Z,96.34
2022-10-01T08:21:23.049Z,96.34
2022-10-01T08:22:23.045Z,96.55
2022-10-01T08:23:23.041Z,96.55
2022-10-01T08:24:23.020Z,96.45
2022-10-01T08:25:23.009Z,96.34
2022-10-01T08:26:23.002Z,96.25
2022-10-01T08:27:22.987Z,96.14
2022-10-01T08:28:23.049Z,96.14
2022-10-01T08:29:22.968Z,96.25
2022-10-01T08:30:22.962Z,96.25
2022-10-01T08:31:23.021Z,96.55
2022-10-01T08:32:22.936Z,96.61
2022-10-01T08:33:22.941Z,96.61
2022-10-01T08:34:22.916Z,96.51
2022-10-01T08:35:22.911Z,96.41
2022-10-01T08:36:22.920Z,96.41
2022-10-01T08:37:22.881Z,96.51
2022-10-01T08:38:22.890Z,96.41
2022-10-01T08:39:22.873Z,96.41
2022-10-01T08:40:22.853Z,96.41
2022-10-01T08:41:23.470Z,96.41
2022-10-01T08:42:22.836Z,96.51
2022-10-01T08:43:22.820Z,96.61
2022-10-01T08:44:22.830Z,96.71
2022-10-01T08:45:22.807Z,96.81
2022-10-01T08:46:22.789Z,97.02
2022-10-01T08:47:22.778Z,96.81
2022-10-01T08:48:22.770Z,96.81
2022-10-01T08:49:22.772Z,96.71
2022-10-01T08:50:22.754Z,96.71
2022-10-01T08:51:22.743Z,96.92
2022-10-01T08:52:22.747Z,96.92
2022-10-01T08:53:22.718Z,97.02
2022-10-01T08:54:22.718Z,97.12
2022-10-01T08:55:22.694Z,97.33
2022-10-01T08:56:22.806Z,97.33
2022-10-01T08:57:22.672Z,97.53
2022-10-01T08:58:22.667Z,97.22
2022-10-01T08:59:27.190Z,97.22
2022-10-01T09:00:22.647Z,97.22
2022-10-01T09:01:22.706Z,97.22
2022-10-01T09:02:22.624Z,97.17
2022-10-01T09:03:22.633Z,97.28
2022-10-01T09:04:22.622Z,97.17
2022-10-01T09:05:22.594Z,97.28
2022-10-01T09:06:22.581Z,96.97
2022-10-01T09:07:22.572Z,96.77
2022-10-01T09:08:22.655Z,96.77
2022-10-01T09:09:22.553Z,96.77
2022-10-01T09:10:22.540Z,96.72
2022-10-01T09:11:22.531Z,96.83
2022-10-01T09:12:22.529Z,96.51
2022-10-01T09:13:22.523Z,96.31
2022-10-01T09:14:22.498Z,96.11
2022-10-01T09:15:22.505Z,96.01
2022-10-01T09:16:22.573Z,95.80
2022-10-01T09:17:22.477Z,95.70
2022-10-01T09:18:22.482Z,96.06
2022-10-01T09:19:22.447Z,96.47
2022-10-01T09:20:22.493Z,95.86
2022-10-01T09:21:22.431Z,95.76
2022-10-01T09:22:22.413Z,95.76
2022-10-01T09:23:22.411Z,96.17
2022-10-01T09:24:22.433Z,96.06
2022-10-01T09:25:22.391Z,95.86
2022-10-01T09:26:25.612Z,95.92
2022-10-01T09:27:22.368Z,95.61
2022-10-01T09:28:22.417Z,95.61
2022-10-01T09:29:22.361Z,95.61
2022-10-01T09:30:22.334Z,95.72
2022-10-01T09:31:22.441Z,95.92
2022-10-01T09:32:22.309Z,95.81
2022-10-01T09:33:22.303Z,95.81
2022-10-01T09:34:22.310Z,95.72
2022-10-01T09:35:22.298Z,95.76
2022-10-01T09:36:22.273Z,95.76
2022-10-01T09:37:22.259Z,95.86
2022-10-01T09:38:22.251Z,95.76
2022-10-01T09:39:22.255Z,95.76
2022-10-01T09:40:22.340Z,95.86
2022-10-01T09:41:22.252Z,95.86
2022-10-01T09:42:22.209Z,95.92
2022-10-01T09:43:22.203Z,96.02
2022-10-01T09:44:22.200Z,95.92
2022-10-01T09:45:22.177Z,95.81
2022-10-01T09:46:22.243Z,95.72
2022-10-01T09:47:22.156Z,95.81
2022-10-01T09:48:22.150Z,95.92
2022-10-01T09:49:22.158Z,96.12
2022-10-01T09:50:22.125Z,96.12
2022-10-01T09:51:22.126Z,96.12
2022-10-01T09:52:22.107Z,96.02
2022-10-01T09:53:22.092Z,96.12
2022-10-01T09:54:22.150Z,96.02
2022-10-01T09:55:22.072Z,96.22
2022-10-01T09:56:22.092Z,96.43
2022-10-01T09:57:22.057Z,96.53
2022-10-01T09:58:22.071Z,96.84
2022-10-01T09:59:22.049Z,96.94
2022-10-01T10:00:22.021Z,97.04
2022-10-01T10:01:22.044Z,97.24
2022-10-01T10:02:22.248Z,97.45
2022-10-01T10:03:22.172Z,97.55
2022-10-01T10:04:22.000Z,97.86
2022-10-01T10:05:21.973Z,98.00
2022-10-01T10:06:21.962Z,98.21
2022-10-01T10:07:21.952Z,98.21
2022-10-01T10:08:22.007Z,98.31
2022-10-01T10:09:21.954Z,98.41
2022-10-01T10:10:25.504Z,98.52
2022-10-01T10:11:21.909Z,98.72
2022-10-01T10:12:21.916Z,98.82
2022-10-01T10:13:21.888Z,98.93
2022-10-01T10:14:21.891Z,99.02
2022-10-01T10:15:21.870Z,99.02
2022-10-01T10:16:21.954Z,99.02
2022-10-01T10:17:21.846Z,99.02
2022-10-01T10:18:24.098Z,99.02
2022-10-01T10:19:21.841Z,99.23
2022-10-01T10:20:21.813Z,99.13
2022-10-01T10:21:21.828Z,99.13
2022-10-01T10:22:21.793Z,99.13
2022-10-01T10:23:21.782Z,99.13
2022-10-01T10:24:21.787Z,99.23
2022-10-01T10:25:21.780Z,99.23
2022-10-01T10:26:21.758Z,99.43
2022-10-01T10:27:21.747Z,99.43
2022-10-01T10:28:21.779Z,99.33
2022-10-01T10:29:21.723Z,99.43
2022-10-01T10:30:21.724Z,99.54
2022-10-01T10:31:21.804Z,99.54
2022-10-01T10:32:21.704Z,99.54
2022-10-01T10:33:21.682Z,99.54
2022-10-01T10:34:21.705Z,99.54
2022-10-01T10:35:21.663Z,99.59
2022-10-01T10:36:21.653Z,99.59
2022-10-01T10:37:21.640Z,99.59
2022-10-01T10:38:21.629Z,99.59
2022-10-01T10:39:21.633Z,99.49
2022-10-01T10:40:25.714Z,99.59
2022-10-01T10:41:22.598Z,99.59
2022-10-01T10:42:21.597Z,99.44
2022-10-01T10:43:21.576Z,99.34
2022-10-01T10:44:21.626Z,99.34
2022-10-01T10:45:21.563Z,99.09
2022-10-01T10:46:21.666Z,98.99
2022-10-01T10:47:21.538Z,98.84
2022-10-01T10:48:21.527Z,98.74
2022-10-01T10:49:21.528Z,98.54
2022-10-01T10:50:21.505Z,98.02
2022-10-01T10:51:21.514Z,98.13
2022-10-01T10:52:21.491Z,98.08
2022-10-01T10:53:21.473Z,97.78
2022-10-01T10:54:21.476Z,97.57
2022-10-01T10:55:21.451Z,97.32
2022-10-01T10:56:21.445Z,97.02
2022-10-01T10:57:21.485Z,97.58
2022-10-01T10:58:21.420Z,97.58
2022-10-01T10:59:21.427Z,96.31
2022-10-01T11:00:21.423Z,95.40
2022-10-01T11:01:21.445Z,94.64
2022-10-01T11:02:21.461Z,94.64
2022-10-01T11:03:21.403Z,94.85
2022-10-01T11:04:21.357Z,94.40
2022-10-01T11:05:21.364Z,92.36
2022-10-01T11:06:21.337Z,93.28
2022-10-01T11:07:21.329Z,92.22
2022-10-01T11:08:21.316Z,91.61
2022-10-01T11:09:21.312Z,92.32
2022-10-01T11:10:21.314Z,92.52
2022-10-01T11:11:21.290Z,92.42
2022-10-01T11:12:21.274Z,92.42
2022-10-01T11:13:21.271Z,92.52
2022-10-01T11:14:23.649Z,91.30
2022-10-01T11:15:21.290Z,91.35
2022-10-01T11:16:21.317Z,91.45
2022-10-01T11:17:21.344Z,91.55
2022-10-01T11:18:21.218Z,91.55
2022-10-01T11:19:21.206Z,91.86
2022-10-01T11:20:21.441Z,92.16
2022-10-01T11:21:21.186Z,91.82
2022-10-01T11:22:21.174Z,91.61
2022-10-01T11:23:21.164Z,91.20
2022-10-01T11:24:21.149Z,91.06
2022-10-01T11:25:21.158Z,90.61
2022-10-01T11:26:21.140Z,91.32
2022-10-01T11:27:21.196Z,91.02
2022-10-01T11:28:21.143Z,91.52
2022-10-01T11:29:21.104Z,90.20
2022-10-01T11:30:21.104Z,90.20
2022-10-01T11:31:21.135Z,90.11
2022-10-01T11:32:21.090Z,88.68
2022-10-01T11:33:21.056Z,89.55
2022-10-01T11:34:21.046Z,89.55
2022-10-01T11:35:21.150Z,88.84
2022-10-01T11:36:21.024Z,88.23
2022-10-01T11:37:21.016Z,87.73
2022-10-01T11:38:21.010Z,87.73
2022-10-01T11:39:20.998Z,87.52
2022-10-01T11:40:21.024Z,88.34
2022-10-01T11:41:20.973Z,88.29
2022-10-01T11:42:20.961Z,86.98
2022-10-01T11:43:20.978Z,86.98
2022-10-01T11:44:20.941Z,88.49
2022-10-01T11:45:20.944Z,87.59
2022-10-01T11:46:20.964Z,87.54
2022-10-01T11:47:20.916Z,86.53
2022-10-01T11:48:20.922Z,86.94
2022-10-01T11:49:20.893Z,87.45
2022-10-01T11:50:20.892Z,86.83
2022-10-01T11:51:20.872Z,87.10
2022-10-01T11:52:20.871Z,86.49
2022-10-01T11:53:20.866Z,86.90
2022-10-01T11:54:20.840Z,85.38
2022-10-01T11:55:20.846Z,84.42
2022-10-01T11:56:20.820Z,86.45
2022-10-01T11:57:20.808Z,84.42
2022-10-01T11:58:20.800Z,85.39
2022-10-01T11:59:20.790Z,86.00
2022-10-01T12:00:24.107Z,84.89
2022-10-01T12:01:21.765Z,83.88
2022-10-01T12:02:20.803Z,84.48
2022-10-01T12:03:20.897Z,84.12
2022-10-01T12:04:20.770Z,85.10
2022-10-01T12:05:20.913Z,84.75
2022-10-01T12:06:25.058Z,82.93
2022-10-01T12:07:21.703Z,82.53
2022-10-01T12:08:20.698Z,82.76
2022-10-01T12:09:20.684Z,82.36
2022-10-01T12:10:20.689Z,83.68
2022-10-01T12:11:20.662Z,83.41
2022-10-01T12:12:20.664Z,84.22
2022-10-01T12:13:20.648Z,84.39
2022-10-01T12:14:20.634Z,82.60
2022-10-01T12:15:20.640Z,83.11
2022-10-01T12:16:20.690Z,84.63
2022-10-01T12:17:20.600Z,84.63
2022-10-01T12:18:20.589Z,84.02
2022-10-01T12:19:20.587Z,84.75
2022-10-01T12:20:20.641Z,84.65
2022-10-01T12:21:20.560Z,84.25
2022-10-01T12:22:24.390Z,83.23
2022-10-01T12:23:20.541Z,83.64
2022-10-01T12:24:20.526Z,83.54
2022-10-01T12:25:20.534Z,82.32
2022-10-01T12:26:20.505Z,83.23
2022-10-01T12:27:20.500Z,83.13
2022-10-01T12:28:20.562Z,82.97
2022-10-01T12:29:20.482Z,83.37
2022-10-01T12:30:20.508Z,83.98
2022-10-01T12:31:20.504Z,83.07
2022-10-01T12:32:20.443Z,83.68
2022-10-01T12:33:20.434Z,84.19
2022-10-01T12:34:20.423Z,83.58
2022-10-01T12:35:20.430Z,83.58
2022-10-01T12:36:20.420Z,83.74
2022-10-01T12:37:20.392Z,82.73
2022-10-01T12:38:20.380Z,83.74
2022-10-01T12:39:20.371Z,83.54
2022-10-01T12:40:20.381Z,82.93
2022-10-01T12:41:20.358Z,82.22
2022-10-01T12:42:20.344Z,82.32
2022-10-01T12:43:20.329Z,82.99
2022-10-01T12:44:20.333Z,84.00
2022-10-01T12:45:20.324Z,83.09
2022-10-01T12:46:20.459Z,83.36
2022-10-01T12:47:20.292Z,82.85
2022-10-01T12:48:20.278Z,81.98
2022-10-01T12:49:20.279Z,82.99
2022-10-01T12:50:20.273Z,81.98
2022-10-01T12:51:20.336Z,83.23
2022-10-01T12:52:20.256Z,82.83